Elizabeth Prince — WDJ6817 — position and weather

sailwx.info

Track history (hours):
 
Tides and Currents Weather Stations Pressure Air Temp Water Temp Dewpoint Dewpoint Depression Visibility Wind Speed Wind Dir Waves Ship Positions

Elizabeth Prince

Owner: Genesis Marine,LLC, Houston, TX. More information available from US FCC via Universal Licensing System and Coast Guard Vessel Documentation Center.

Last reported at 2018-Jan-04 16:02 UTC. Time now 2018-Jan-23 23:40 UTC.
Position N 29°51' W 091°56'.
Warning: this ship's position is 19 days out of date.

Length 27 m; draft 2.6 m.

Type: Towing. MMSI: 368000510.

Date/timePositionNaut miles runAvg speedWind from/ knotsBaromVisibWave heightAir tempDewpointWater temp
2018-Jan-04 16:02N 29°51' W 091°56'0 6.3
2018-Jan-04 16:00N 29°51' W 091°57'3 6.5
2018-Jan-04 15:30N 29°50' W 092°00'3 6.4
2018-Jan-04 15:00N 29°49' W 092°04'3 5.8
2018-Jan-04 14:30N 29°48' W 092°07'3 6.2
2018-Jan-04 14:00N 29°47' W 092°10'3 5.6
2018-Jan-04 13:30N 29°47' W 092°13'3 6.1
2018-Jan-04 13:00N 29°49' W 092°16'3 5.7
2018-Jan-04 12:30N 29°50' W 092°19'4 5.2
2018-Jan-04 11:50N 29°52' W 092°23'25 5.7
2018-Jan-04 07:28N 29°58' W 092°51'3 5.6
2018-Jan-04 06:59N 29°57' W 092°54'3 5.5
2018-Jan-04 06:25N 29°56' W 092°57'3 5.5
2018-Jan-04 05:57N 29°56' W 093°00'2 5.6
2018-Jan-04 05:30N 29°56' W 093°03'3 5.3
2018-Jan-04 05:00N 29°56' W 093°06'2 5.0
2018-Jan-04 04:30N 29°56' W 093°09'2 4.8
2018-Jan-04 04:00N 29°58' W 093°11'3 5.2
2018-Jan-04 03:30N 29°60' W 093°13'2 4.2
2018-Jan-04 03:00N 30°01' W 093°14'1 2.1
2018-Jan-04 02:30N 30°02' W 093°15'2 3.8
2018-Jan-04 02:00N 30°04' W 093°16'2 4.2
2018-Jan-04 01:30N 30°05' W 093°18'1 2.1
2018-Jan-04 01:00N 30°06' W 093°18'0 0.9
2018-Jan-04 00:30N 30°06' W 093°19'0 0.0
2018-Jan-04 00:00N 30°06' W 093°19'0 0.0
2018-Jan-03 23:30N 30°06' W 093°19'0 0.0
2018-Jan-03 23:00N 30°06' W 093°19'0 0.0
2018-Jan-03 22:30N 30°06' W 093°19'0 0.1
2018-Jan-03 22:00N 30°06' W 093°19'0 0.0
2018-Jan-03 21:30N 30°06' W 093°19'0 0.0
2018-Jan-03 21:00N 30°06' W 093°19'0 0.0
2018-Jan-03 20:30N 30°06' W 093°19'0 0.0
2018-Jan-03 20:00N 30°06' W 093°19'0 0.0
2018-Jan-03 19:30N 30°06' W 093°19'0 0.0
2018-Jan-03 19:00N 30°06' W 093°19'0 0.0
2018-Jan-03 18:30N 30°06' W 093°19'0 0.1
2018-Jan-03 18:00N 30°06' W 093°19'0 0.0
2018-Jan-03 17:30N 30°06' W 093°19'0 0.0
2018-Jan-03 17:00N 30°06' W 093°19'0 0.0
2018-Jan-03 16:30N 30°06' W 093°19'0 0.1
2018-Jan-03 16:00N 30°06' W 093°19'0 0.3
2018-Jan-03 15:30N 30°06' W 093°19'0 0.0
2018-Jan-03 15:00N 30°06' W 093°19'0 0.0
2018-Jan-03 14:30N 30°06' W 093°19'0 0.0
2018-Jan-03 14:00N 30°06' W 093°19'0 0.0
2018-Jan-03 13:30N 30°06' W 093°19'0 0.0
2018-Jan-03 13:00N 30°06' W 093°19'0 0.0
2018-Jan-03 12:30N 30°06' W 093°19'1 2.9
2018-Jan-03 12:00N 30°05' W 093°20'2 3.4
2018-Jan-03 11:30N 30°04' W 093°21'1 2.6
2018-Jan-03 11:00N 30°04' W 093°23'0 0.3
2018-Jan-03 10:30N 30°04' W 093°23'2 3.5
2018-Jan-03 10:00N 30°04' W 093°25'3 5.4
2018-Jan-03 09:30N 30°04' W 093°28'3 5.3
2018-Jan-03 09:00N 30°04' W 093°31'2 3.2
2018-Jan-03 08:30N 30°04' W 093°33'3 5.4
2018-Jan-03 08:00N 30°04' W 093°36'3 5.9
2018-Jan-03 07:28N 30°04' W 093°40'71 3.9
2018-Jan-02 13:06N 29°31' W 094°53'1 7.2
2018-Jan-02 13:00N 29°31' W 094°53'4 7.2
2018-Jan-02 12:30N 29°34' W 094°55'4 7.1
2018-Jan-02 12:00N 29°37' W 094°58'3 7.0
2018-Jan-02 11:30N 29°41' W 094°59'4 6.2
2018-Jan-02 10:54N 29°44' W 095°01'5 0.4
2018-Jan-01 21:30N 29°46' W 095°06'1 0.9
2018-Jan-01 20:28N 29°46' W 095°07'1 0.0
2017-Dec-31 14:02N 29°46' W 095°06'0 4.1
2017-Dec-31 14:00N 29°46' W 095°06'2 3.9
2017-Dec-31 13:28N 29°47' W 095°04'1 3.2
2017-Dec-31 13:00N 29°46' W 095°05'1 1.0
2017-Dec-31 11:46N 29°47' W 095°04'1 3.1
2017-Dec-31 11:24N 29°46' W 095°05'2 4.3
2017-Dec-31 11:00N 29°45' W 095°04'3 5.0
2017-Dec-31 10:30N 29°43' W 095°01'3 6.1
2017-Dec-31 10:00N 29°41' W 094°59'4 7.5
2017-Dec-31 09:30N 29°37' W 094°58'4 7.6
2017-Dec-31 09:00N 29°34' W 094°55'4 7.5
2017-Dec-31 08:30N 29°31' W 094°53'68 4.1
2017-Dec-30 16:07N 30°03' W 093°44'4 6.3
2017-Dec-30 15:25N 30°04' W 093°39'3 6.3
2017-Dec-30 15:00N 30°04' W 093°36'3 5.4
2017-Dec-30 14:30N 30°04' W 093°33'3 5.1
2017-Dec-30 14:00N 30°04' W 093°30'3 5.1
2017-Dec-30 13:30N 30°04' W 093°27'2 4.9
2017-Dec-30 13:00N 30°04' W 093°24'2 3.4
2017-Dec-30 12:30N 30°04' W 093°22'2 3.2
2017-Dec-30 12:00N 30°04' W 093°21'1 2.2
2017-Dec-30 11:30N 30°05' W 093°20'2 3.3
2017-Dec-30 11:00N 30°06' W 093°18'1 1.5
2017-Dec-30 10:30N 30°05' W 093°17'1 2.2
2017-Dec-30 10:00N 30°04' W 093°16'0 0.0
2017-Dec-30 09:30N 30°04' W 093°16'0 0.0
2017-Dec-30 09:00N 30°04' W 093°16'0 0.0
2017-Dec-30 08:30N 30°04' W 093°16'0 0.0
2017-Dec-30 08:00N 30°04' W 093°16'0 0.2
2017-Dec-30 07:30N 30°04' W 093°16'0 0.8
2017-Dec-30 07:00N 30°04' W 093°16'0 0.8
2017-Dec-30 06:30N 30°04' W 093°16'1 2.2
2017-Dec-30 06:00N 30°03' W 093°16'1 2.2
2017-Dec-30 05:30N 30°02' W 093°15'2 3.1
2017-Dec-30 05:00N 30°01' W 093°14'2 3.5
2017-Dec-30 04:30N 29°59' W 093°13'2 3.8
2017-Dec-30 04:00N 29°58' W 093°11'2 3.7
2017-Dec-30 03:30N 29°56' W 093°10'2 3.5
2017-Dec-30 03:00N 29°56' W 093°08'2 3.7
2017-Dec-30 02:29N 29°56' W 093°06'37 2.6
2017-Dec-29 11:52N 29°52' W 092°23'2 4.5
2017-Dec-29 11:30N 29°51' W 092°22'2 3.9
2017-Dec-29 11:00N 29°50' W 092°19'2 4.2
2017-Dec-29 10:30N 29°49' W 092°17'2 4.9
2017-Dec-29 10:00N 29°48' W 092°15'2 4.8
2017-Dec-29 09:30N 29°47' W 092°12'2 3.1
2017-Dec-29 09:00N 29°47' W 092°11'2 4.5
2017-Dec-29 08:30N 29°47' W 092°08'3 4.9
2017-Dec-29 07:59N 29°48' W 092°06'2 4.6
2017-Dec-29 07:30N 29°49' W 092°03'3 5.1
2017-Dec-29 07:00N 29°50' W 092°00'  
Track history (hours):
 
Tides and Currents Weather Stations Pressure Air Temp Water Temp Dewpoint Dewpoint Depression Visibility Wind Speed Wind Dir Waves Ship Positions

Elizabeth Prince

Owner: Genesis Marine,LLC, Houston, TX. More information available from US FCC via Universal Licensing System and Coast Guard Vessel Documentation Center.

Last reported at 2018-Jan-04 16:02 UTC. Time now 2018-Jan-23 23:40 UTC.
Position N 29°51' W 091°56'.
Warning: this ship's position is 19 days out of date.

Length 27 m; draft 2.6 m.

Type: Towing. MMSI: 368000510.

Date/timePositionNaut miles runAvg speedWind from/ knotsBaromVisibWave heightAir tempDewpointWater temp
2018-Jan-04 16:02N 29°51' W 091°56'0 6.3
2018-Jan-04 16:00N 29°51' W 091°57'3 6.5
2018-Jan-04 15:30N 29°50' W 092°00'3 6.4
2018-Jan-04 15:00N 29°49' W 092°04'3 5.8
2018-Jan-04 14:30N 29°48' W 092°07'3 6.2
2018-Jan-04 14:00N 29°47' W 092°10'3 5.6
2018-Jan-04 13:30N 29°47' W 092°13'3 6.1
2018-Jan-04 13:00N 29°49' W 092°16'3 5.7
2018-Jan-04 12:30N 29°50' W 092°19'4 5.2
2018-Jan-04 11:50N 29°52' W 092°23'25 5.7
2018-Jan-04 07:28N 29°58' W 092°51'3 5.6
2018-Jan-04 06:59N 29°57' W 092°54'3 5.5
2018-Jan-04 06:25N 29°56' W 092°57'3 5.5
2018-Jan-04 05:57N 29°56' W 093°00'2 5.6
2018-Jan-04 05:30N 29°56' W 093°03'3 5.3
2018-Jan-04 05:00N 29°56' W 093°06'2 5.0
2018-Jan-04 04:30N 29°56' W 093°09'2 4.8
2018-Jan-04 04:00N 29°58' W 093°11'3 5.2
2018-Jan-04 03:30N 29°60' W 093°13'2 4.2
2018-Jan-04 03:00N 30°01' W 093°14'1 2.1
2018-Jan-04 02:30N 30°02' W 093°15'2 3.8
2018-Jan-04 02:00N 30°04' W 093°16'2 4.2
2018-Jan-04 01:30N 30°05' W 093°18'1 2.1
2018-Jan-04 01:00N 30°06' W 093°18'0 0.9
2018-Jan-04 00:30N 30°06' W 093°19'0 0.0
2018-Jan-04 00:00N 30°06' W 093°19'0 0.0
2018-Jan-03 23:30N 30°06' W 093°19'0 0.0
2018-Jan-03 23:00N 30°06' W 093°19'0 0.0
2018-Jan-03 22:30N 30°06' W 093°19'0 0.1
2018-Jan-03 22:00N 30°06' W 093°19'0 0.0
2018-Jan-03 21:30N 30°06' W 093°19'0 0.0
2018-Jan-03 21:00N 30°06' W 093°19'0 0.0
2018-Jan-03 20:30N 30°06' W 093°19'0 0.0
2018-Jan-03 20:00N 30°06' W 093°19'0 0.0
2018-Jan-03 19:30N 30°06' W 093°19'0 0.0
2018-Jan-03 19:00N 30°06' W 093°19'0 0.0
2018-Jan-03 18:30N 30°06' W 093°19'0 0.1
2018-Jan-03 18:00N 30°06' W 093°19'0 0.0
2018-Jan-03 17:30N 30°06' W 093°19'0 0.0
2018-Jan-03 17:00N 30°06' W 093°19'0 0.0
2018-Jan-03 16:30N 30°06' W 093°19'0 0.1
2018-Jan-03 16:00N 30°06' W 093°19'0 0.3
2018-Jan-03 15:30N 30°06' W 093°19'0 0.0
2018-Jan-03 15:00N 30°06' W 093°19'0 0.0
2018-Jan-03 14:30N 30°06' W 093°19'0 0.0
2018-Jan-03 14:00N 30°06' W 093°19'0 0.0
2018-Jan-03 13:30N 30°06' W 093°19'0 0.0
2018-Jan-03 13:00N 30°06' W 093°19'0 0.0
2018-Jan-03 12:30N 30°06' W 093°19'1 2.9
2018-Jan-03 12:00N 30°05' W 093°20'2 3.4
2018-Jan-03 11:30N 30°04' W 093°21'1 2.6
2018-Jan-03 11:00N 30°04' W 093°23'0 0.3
2018-Jan-03 10:30N 30°04' W 093°23'2 3.5
2018-Jan-03 10:00N 30°04' W 093°25'3 5.4
2018-Jan-03 09:30N 30°04' W 093°28'3 5.3
2018-Jan-03 09:00N 30°04' W 093°31'2 3.2
2018-Jan-03 08:30N 30°04' W 093°33'3 5.4
2018-Jan-03 08:00N 30°04' W 093°36'3 5.9
2018-Jan-03 07:28N 30°04' W 093°40'71 3.9
2018-Jan-02 13:06N 29°31' W 094°53'1 7.2
2018-Jan-02 13:00N 29°31' W 094°53'4 7.2
2018-Jan-02 12:30N 29°34' W 094°55'4 7.1
2018-Jan-02 12:00N 29°37' W 094°58'3 7.0
2018-Jan-02 11:30N 29°41' W 094°59'4 6.2
2018-Jan-02 10:54N 29°44' W 095°01'5 0.4
2018-Jan-01 21:30N 29°46' W 095°06'1 0.9
2018-Jan-01 20:28N 29°46' W 095°07'1 0.0
2017-Dec-31 14:02N 29°46' W 095°06'0 4.1
2017-Dec-31 14:00N 29°46' W 095°06'2 3.9
2017-Dec-31 13:28N 29°47' W 095°04'1 3.2
2017-Dec-31 13:00N 29°46' W 095°05'1 1.0
2017-Dec-31 11:46N 29°47' W 095°04'1 3.1
2017-Dec-31 11:24N 29°46' W 095°05'2 4.3
2017-Dec-31 11:00N 29°45' W 095°04'3 5.0
2017-Dec-31 10:30N 29°43' W 095°01'3 6.1
2017-Dec-31 10:00N 29°41' W 094°59'4 7.5
2017-Dec-31 09:30N 29°37' W 094°58'4 7.6
2017-Dec-31 09:00N 29°34' W 094°55'4 7.5
2017-Dec-31 08:30N 29°31' W 094°53'68 4.1
2017-Dec-30 16:07N 30°03' W 093°44'4 6.3
2017-Dec-30 15:25N 30°04' W 093°39'3 6.3
2017-Dec-30 15:00N 30°04' W 093°36'3 5.4
2017-Dec-30 14:30N 30°04' W 093°33'3 5.1
2017-Dec-30 14:00N 30°04' W 093°30'3 5.1
2017-Dec-30 13:30N 30°04' W 093°27'2 4.9
2017-Dec-30 13:00N 30°04' W 093°24'2 3.4
2017-Dec-30 12:30N 30°04' W 093°22'2 3.2
2017-Dec-30 12:00N 30°04' W 093°21'1 2.2
2017-Dec-30 11:30N 30°05' W 093°20'2 3.3
2017-Dec-30 11:00N 30°06' W 093°18'1 1.5
2017-Dec-30 10:30N 30°05' W 093°17'1 2.2
2017-Dec-30 10:00N 30°04' W 093°16'0 0.0
2017-Dec-30 09:30N 30°04' W 093°16'0 0.0
2017-Dec-30 09:00N 30°04' W 093°16'0 0.0
2017-Dec-30 08:30N 30°04' W 093°16'0 0.0
2017-Dec-30 08:00N 30°04' W 093°16'0 0.2
2017-Dec-30 07:30N 30°04' W 093°16'0 0.8
2017-Dec-30 07:00N 30°04' W 093°16'0 0.8
2017-Dec-30 06:30N 30°04' W 093°16'1 2.2
2017-Dec-30 06:00N 30°03' W 093°16'1 2.2
2017-Dec-30 05:30N 30°02' W 093°15'2 3.1
2017-Dec-30 05:00N 30°01' W 093°14'2 3.5
2017-Dec-30 04:30N 29°59' W 093°13'2 3.8
2017-Dec-30 04:00N 29°58' W 093°11'2 3.7
2017-Dec-30 03:30N 29°56' W 093°10'2 3.5
2017-Dec-30 03:00N 29°56' W 093°08'2 3.7
2017-Dec-30 02:29N 29°56' W 093°06'37 2.6
2017-Dec-29 11:52N 29°52' W 092°23'2 4.5
2017-Dec-29 11:30N 29°51' W 092°22'2 3.9
2017-Dec-29 11:00N 29°50' W 092°19'2 4.2
2017-Dec-29 10:30N 29°49' W 092°17'2 4.9
2017-Dec-29 10:00N 29°48' W 092°15'2 4.8
2017-Dec-29 09:30N 29°47' W 092°12'2 3.1
2017-Dec-29 09:00N 29°47' W 092°11'2 4.5
2017-Dec-29 08:30N 29°47' W 092°08'3 4.9
2017-Dec-29 07:59N 29°48' W 092°06'2 4.6
2017-Dec-29 07:30N 29°49' W 092°03'3 5.1
2017-Dec-29 07:00N 29°50' W 092°00'  

Dump ship's entire track history